sensor_id;sensor_type;location;lat;lon;timestamp;P1;durP1;ratioP1;P2;durP2;ratioP2
22967;SDS011;11650;48.106;-1.696;2023-08-12T00:00:19;3.10;;;1.60;;
22967;SDS011;11650;48.106;-1.696;2023-08-12T00:02:45;2.77;;;1.70;;
22967;SDS011;11650;48.106;-1.696;2023-08-12T00:05:11;3.10;;;1.70;;
22967;SDS011;11650;48.106;-1.696;2023-08-12T00:07:37;3.37;;;1.90;;
22967;SDS011;11650;48.106;-1.696;2023-08-12T00:10:06;4.00;;;2.10;;
22967;SDS011;11650;48.106;-1.696;2023-08-12T00:12:34;2.83;;;1.90;;
22967;SDS011;11650;48.106;-1.696;2023-08-12T00:15:00;2.60;;;1.33;;
22967;SDS011;11650;48.106;-1.696;2023-08-12T00:17:26;4.20;;;1.50;;
22967;SDS011;11650;48.106;-1.696;2023-08-12T00:19:52;3.30;;;1.30;;
22967;SDS011;11650;48.106;-1.696;2023-08-12T00:22:18;3.03;;;2.03;;
22967;SDS011;11650;48.106;-1.696;2023-08-12T00:24:43;3.27;;;1.23;;
22967;SDS011;11650;48.106;-1.696;2023-08-12T00:27:09;1.60;;;1.37;;
22967;SDS011;11650;48.106;-1.696;2023-08-12T00:29:36;2.23;;;1.13;;
22967;SDS011;11650;48.106;-1.696;2023-08-12T00:32:02;2.20;;;1.20;;
22967;SDS011;11650;48.106;-1.696;2023-08-12T00:34:28;3.23;;;1.70;;
22967;SDS011;11650;48.106;-1.696;2023-08-12T00:36:53;2.27;;;1.13;;
22967;SDS011;11650;48.106;-1.696;2023-08-12T00:39:19;4.17;;;1.20;;
22967;SDS011;11650;48.106;-1.696;2023-08-12T00:41:45;4.63;;;1.50;;
22967;SDS011;11650;48.106;-1.696;2023-08-12T00:44:12;4.13;;;1.40;;
22967;SDS011;11650;48.106;-1.696;2023-08-12T00:46:38;4.40;;;1.70;;
22967;SDS011;11650;48.106;-1.696;2023-08-12T00:49:05;1.70;;;0.90;;
22967;SDS011;11650;48.106;-1.696;2023-08-12T00:51:31;5.50;;;1.40;;
22967;SDS011;11650;48.106;-1.696;2023-08-12T00:53:57;2.70;;;1.20;;
22967;SDS011;11650;48.106;-1.696;2023-08-12T00:56:24;2.50;;;1.00;;
22967;SDS011;11650;48.106;-1.696;2023-08-12T00:58:52;3.70;;;1.10;;
22967;SDS011;11650;48.106;-1.696;2023-08-12T01:01:18;6.30;;;1.13;;
22967;SDS011;11650;48.106;-1.696;2023-08-12T01:03:44;4.40;;;1.30;;
22967;SDS011;11650;48.106;-1.696;2023-08-12T01:06:11;2.40;;;1.27;;
22967;SDS011;11650;48.106;-1.696;2023-08-12T01:08:37;3.47;;;1.10;;
22967;SDS011;11650;48.106;-1.696;2023-08-12T01:11:07;3.97;;;1.60;;
22967;SDS011;11650;48.106;-1.696;2023-08-12T01:16:29;5.43;;;1.43;;
22967;SDS011;11650;48.106;-1.696;2023-08-12T01:18:57;2.47;;;1.40;;
22967;SDS011;11650;48.106;-1.696;2023-08-12T01:21:25;5.40;;;1.60;;
22967;SDS011;11650;48.106;-1.696;2023-08-12T01:23:54;6.10;;;1.50;;
22967;SDS011;11650;48.106;-1.696;2023-08-12T01:26:20;5.67;;;1.80;;
22967;SDS011;11650;48.106;-1.696;2023-08-12T01:28:46;8.23;;;2.10;;
22967;SDS011;11650;48.106;-1.696;2023-08-12T01:31:14;6.83;;;1.70;;
22967;SDS011;11650;48.106;-1.696;2023-08-12T01:33:51;3.70;;;1.70;;
22967;SDS011;11650;48.106;-1.696;2023-08-12T01:36:23;5.83;;;1.80;;
22967;SDS011;11650;48.106;-1.696;2023-08-12T01:38:51;6.50;;;1.80;;
22967;SDS011;11650;48.106;-1.696;2023-08-12T01:41:17;4.33;;;1.50;;
22967;SDS011;11650;48.106;-1.696;2023-08-12T01:43:44;4.47;;;1.60;;
22967;SDS011;11650;48.106;-1.696;2023-08-12T01:46:11;5.17;;;1.60;;
22967;SDS011;11650;48.106;-1.696;2023-08-12T01:48:36;3.93;;;1.50;;
22967;SDS011;11650;48.106;-1.696;2023-08-12T01:51:02;2.90;;;1.50;;
22967;SDS011;11650;48.106;-1.696;2023-08-12T01:53:28;5.23;;;1.70;;
22967;SDS011;11650;48.106;-1.696;2023-08-12T01:55:54;4.33;;;1.97;;
22967;SDS011;11650;48.106;-1.696;2023-08-12T01:58:19;3.27;;;1.73;;
22967;SDS011;11650;48.106;-1.696;2023-08-12T02:00:45;6.00;;;1.80;;
22967;SDS011;11650;48.106;-1.696;2023-08-12T02:03:10;6.87;;;1.90;;
22967;SDS011;11650;48.106;-1.696;2023-08-12T02:05:36;4.00;;;1.60;;
22967;SDS011;11650;48.106;-1.696;2023-08-12T02:08:02;5.57;;;1.90;;
22967;SDS011;11650;48.106;-1.696;2023-08-12T02:10:29;6.27;;;2.00;;
22967;SDS011;11650;48.106;-1.696;2023-08-12T02:12:54;6.23;;;2.13;;
22967;SDS011;11650;48.106;-1.696;2023-08-12T02:15:20;6.73;;;2.10;;
22967;SDS011;11650;48.106;-1.696;2023-08-12T02:17:46;6.53;;;2.00;;
22967;SDS011;11650;48.106;-1.696;2023-08-12T02:20:12;7.27;;;2.07;;
22967;SDS011;11650;48.106;-1.696;2023-08-12T02:22:37;6.13;;;2.03;;
22967;SDS011;11650;48.106;-1.696;2023-08-12T02:25:03;8.63;;;2.37;;
22967;SDS011;11650;48.106;-1.696;2023-08-12T02:27:29;7.17;;;2.20;;
22967;SDS011;11650;48.106;-1.696;2023-08-12T02:29:54;5.17;;;2.20;;
22967;SDS011;11650;48.106;-1.696;2023-08-12T02:32:20;8.20;;;2.20;;
22967;SDS011;11650;48.106;-1.696;2023-08-12T02:34:46;6.57;;;2.30;;
22967;SDS011;11650;48.106;-1.696;2023-08-12T02:37:11;7.07;;;2.43;;
22967;SDS011;11650;48.106;-1.696;2023-08-12T02:39:38;8.07;;;2.60;;
22967;SDS011;11650;48.106;-1.696;2023-08-12T02:42:03;8.50;;;2.17;;
22967;SDS011;11650;48.106;-1.696;2023-08-12T02:44:29;7.20;;;2.53;;
22967;SDS011;11650;48.106;-1.696;2023-08-12T02:46:55;12.33;;;2.90;;
22967;SDS011;11650;48.106;-1.696;2023-08-12T02:49:21;8.30;;;2.60;;
22967;SDS011;11650;48.106;-1.696;2023-08-12T02:51:46;9.90;;;2.87;;
22967;SDS011;11650;48.106;-1.696;2023-08-12T02:54:12;7.07;;;2.77;;
22967;SDS011;11650;48.106;-1.696;2023-08-12T02:56:37;10.97;;;2.77;;
22967;SDS011;11650;48.106;-1.696;2023-08-12T02:59:03;8.13;;;3.33;;
22967;SDS011;11650;48.106;-1.696;2023-08-12T03:01:29;13.47;;;3.30;;
22967;SDS011;11650;48.106;-1.696;2023-08-12T03:03:55;11.47;;;3.33;;
22967;SDS011;11650;48.106;-1.696;2023-08-12T03:06:20;6.23;;;2.90;;
22967;SDS011;11650;48.106;-1.696;2023-08-12T03:08:46;8.40;;;3.27;;
22967;SDS011;11650;48.106;-1.696;2023-08-12T03:11:12;8.67;;;2.90;;
22967;SDS011;11650;48.106;-1.696;2023-08-12T03:13:37;9.53;;;3.40;;
22967;SDS011;11650;48.106;-1.696;2023-08-12T03:16:03;9.40;;;3.43;;
22967;SDS011;11650;48.106;-1.696;2023-08-12T03:18:29;10.47;;;3.67;;
22967;SDS011;11650;48.106;-1.696;2023-08-12T03:20:54;11.67;;;3.30;;
22967;SDS011;11650;48.106;-1.696;2023-08-12T03:23:20;7.23;;;3.40;;
22967;SDS011;11650;48.106;-1.696;2023-08-12T03:25:48;9.60;;;3.50;;
22967;SDS011;11650;48.106;-1.696;2023-08-12T03:28:16;11.23;;;3.57;;
22967;SDS011;11650;48.106;-1.696;2023-08-12T03:30:42;9.10;;;3.53;;
22967;SDS011;11650;48.106;-1.696;2023-08-12T03:33:07;11.93;;;3.63;;
22967;SDS011;11650;48.106;-1.696;2023-08-12T03:35:33;9.17;;;3.83;;
22967;SDS011;11650;48.106;-1.696;2023-08-12T03:37:58;8.17;;;3.83;;
22967;SDS011;11650;48.106;-1.696;2023-08-12T03:40:24;8.20;;;3.80;;
22967;SDS011;11650;48.106;-1.696;2023-08-12T03:42:50;10.20;;;3.97;;
22967;SDS011;11650;48.106;-1.696;2023-08-12T03:45:15;10.33;;;3.80;;
22967;SDS011;11650;48.106;-1.696;2023-08-12T03:47:41;11.27;;;4.10;;
22967;SDS011;11650;48.106;-1.696;2023-08-12T03:50:06;10.37;;;3.53;;
22967;SDS011;11650;48.106;-1.696;2023-08-12T03:52:32;13.87;;;4.10;;
22967;SDS011;11650;48.106;-1.696;2023-08-12T03:54:58;11.37;;;4.17;;
22967;SDS011;11650;48.106;-1.696;2023-08-12T03:57:23;11.63;;;4.13;;
22967;SDS011;11650;48.106;-1.696;2023-08-12T03:59:49;11.20;;;4.20;;
22967;SDS011;11650;48.106;-1.696;2023-08-12T04:02:15;12.30;;;4.40;;
22967;SDS011;11650;48.106;-1.696;2023-08-12T04:04:40;9.20;;;4.07;;
22967;SDS011;11650;48.106;-1.696;2023-08-12T04:07:08;8.20;;;4.13;;
22967;SDS011;11650;48.106;-1.696;2023-08-12T04:09:34;13.90;;;4.30;;
22967;SDS011;11650;48.106;-1.696;2023-08-12T04:12:00;12.43;;;4.60;;
22967;SDS011;11650;48.106;-1.696;2023-08-12T04:14:25;12.40;;;4.30;;
22967;SDS011;11650;48.106;-1.696;2023-08-12T04:16:51;17.13;;;4.17;;
22967;SDS011;11650;48.106;-1.696;2023-08-12T04:19:16;14.07;;;4.77;;
22967;SDS011;11650;48.106;-1.696;2023-08-12T04:21:42;15.80;;;4.83;;
22967;SDS011;11650;48.106;-1.696;2023-08-12T04:24:11;11.40;;;4.60;;
22967;SDS011;11650;48.106;-1.696;2023-08-12T04:26:36;16.17;;;5.80;;
22967;SDS011;11650;48.106;-1.696;2023-08-12T04:29:02;14.63;;;5.57;;
22967;SDS011;11650;48.106;-1.696;2023-08-12T04:31:28;13.00;;;5.43;;
22967;SDS011;11650;48.106;-1.696;2023-08-12T04:33:53;12.83;;;5.90;;
22967;SDS011;11650;48.106;-1.696;2023-08-12T04:36:19;15.17;;;5.50;;
22967;SDS011;11650;48.106;-1.696;2023-08-12T04:38:45;12.63;;;5.37;;
22967;SDS011;11650;48.106;-1.696;2023-08-12T04:41:10;13.77;;;6.30;;
22967;SDS011;11650;48.106;-1.696;2023-08-12T04:43:36;14.43;;;6.20;;
22967;SDS011;11650;48.106;-1.696;2023-08-12T04:46:02;22.47;;;6.70;;
22967;SDS011;11650;48.106;-1.696;2023-08-12T04:48:27;14.87;;;6.03;;
22967;SDS011;11650;48.106;-1.696;2023-08-12T04:50:53;16.80;;;6.57;;
22967;SDS011;11650;48.106;-1.696;2023-08-12T04:53:19;14.67;;;6.10;;
22967;SDS011;11650;48.106;-1.696;2023-08-12T04:55:45;10.50;;;6.13;;
22967;SDS011;11650;48.106;-1.696;2023-08-12T04:58:14;15.70;;;6.30;;
22967;SDS011;11650;48.106;-1.696;2023-08-12T05:00:40;10.07;;;6.10;;
22967;SDS011;11650;48.106;-1.696;2023-08-12T05:03:05;16.30;;;5.80;;
22967;SDS011;11650;48.106;-1.696;2023-08-12T05:05:31;19.00;;;6.30;;
22967;SDS011;11650;48.106;-1.696;2023-08-12T05:07:57;15.77;;;5.83;;
22967;SDS011;11650;48.106;-1.696;2023-08-12T05:10:22;19.23;;;6.43;;
22967;SDS011;11650;48.106;-1.696;2023-08-12T05:12:48;17.33;;;6.80;;
22967;SDS011;11650;48.106;-1.696;2023-08-12T05:15:15;16.77;;;6.97;;
22967;SDS011;11650;48.106;-1.696;2023-08-12T05:17:41;15.90;;;6.37;;
22967;SDS011;11650;48.106;-1.696;2023-08-12T05:20:06;16.80;;;6.70;;
22967;SDS011;11650;48.106;-1.696;2023-08-12T05:22:33;15.00;;;6.37;;
22967;SDS011;11650;48.106;-1.696;2023-08-12T05:24:59;18.33;;;6.80;;
22967;SDS011;11650;48.106;-1.696;2023-08-12T05:27:24;15.43;;;6.67;;
22967;SDS011;11650;48.106;-1.696;2023-08-12T05:29:50;19.50;;;6.97;;
22967;SDS011;11650;48.106;-1.696;2023-08-12T05:32:16;14.87;;;6.80;;
22967;SDS011;11650;48.106;-1.696;2023-08-12T05:34:41;14.83;;;6.30;;
22967;SDS011;11650;48.106;-1.696;2023-08-12T05:37:07;16.40;;;6.27;;
22967;SDS011;11650;48.106;-1.696;2023-08-12T05:39:34;16.47;;;5.93;;
22967;SDS011;11650;48.106;-1.696;2023-08-12T05:41:59;16.83;;;6.27;;
22967;SDS011;11650;48.106;-1.696;2023-08-12T05:44:25;15.10;;;5.33;;
22967;SDS011;11650;48.106;-1.696;2023-08-12T05:46:50;15.43;;;5.57;;
22967;SDS011;11650;48.106;-1.696;2023-08-12T05:49:16;17.47;;;5.57;;
22967;SDS011;11650;48.106;-1.696;2023-08-12T05:51:42;15.43;;;5.93;;
22967;SDS011;11650;48.106;-1.696;2023-08-12T05:54:07;17.77;;;5.40;;
22967;SDS011;11650;48.106;-1.696;2023-08-12T05:56:33;12.93;;;5.20;;
22967;SDS011;11650;48.106;-1.696;2023-08-12T05:58:59;19.40;;;5.70;;
22967;SDS011;11650;48.106;-1.696;2023-08-12T06:01:24;16.30;;;6.30;;
22967;SDS011;11650;48.106;-1.696;2023-08-12T06:03:50;20.57;;;6.47;;
22967;SDS011;11650;48.106;-1.696;2023-08-12T06:06:16;14.90;;;6.10;;
22967;SDS011;11650;48.106;-1.696;2023-08-12T06:08:41;21.43;;;6.17;;
22967;SDS011;11650;48.106;-1.696;2023-08-12T06:11:07;17.33;;;6.03;;
22967;SDS011;11650;48.106;-1.696;2023-08-12T06:13:33;16.93;;;5.80;;
22967;SDS011;11650;48.106;-1.696;2023-08-12T06:15:58;16.87;;;6.33;;
22967;SDS011;11650;48.106;-1.696;2023-08-12T06:18:24;21.17;;;6.50;;
22967;SDS011;11650;48.106;-1.696;2023-08-12T06:20:49;18.60;;;6.27;;
22967;SDS011;11650;48.106;-1.696;2023-08-12T06:23:15;23.87;;;6.43;;
22967;SDS011;11650;48.106;-1.696;2023-08-12T06:25:41;17.40;;;6.00;;
22967;SDS011;11650;48.106;-1.696;2023-08-12T06:28:08;21.87;;;5.70;;
22967;SDS011;11650;48.106;-1.696;2023-08-12T06:30:35;22.03;;;6.03;;
22967;SDS011;11650;48.106;-1.696;2023-08-12T06:33:01;21.23;;;6.07;;
22967;SDS011;11650;48.106;-1.696;2023-08-12T06:35:26;18.20;;;5.97;;
22967;SDS011;11650;48.106;-1.696;2023-08-12T06:37:52;19.17;;;5.80;;
22967;SDS011;11650;48.106;-1.696;2023-08-12T06:40:18;16.90;;;6.00;;
22967;SDS011;11650;48.106;-1.696;2023-08-12T06:42:44;20.67;;;6.07;;
22967;SDS011;11650;48.106;-1.696;2023-08-12T06:45:10;17.57;;;5.53;;
22967;SDS011;11650;48.106;-1.696;2023-08-12T06:47:35;15.67;;;5.57;;
22967;SDS011;11650;48.106;-1.696;2023-08-12T06:50:01;19.20;;;5.90;;
22967;SDS011;11650;48.106;-1.696;2023-08-12T06:52:27;19.20;;;5.73;;
22967;SDS011;11650;48.106;-1.696;2023-08-12T06:54:52;16.30;;;5.97;;
22967;SDS011;11650;48.106;-1.696;2023-08-12T06:57:18;20.57;;;5.77;;
22967;SDS011;11650;48.106;-1.696;2023-08-12T06:59:44;17.73;;;5.43;;
22967;SDS011;11650;48.106;-1.696;2023-08-12T07:02:09;20.60;;;5.50;;
22967;SDS011;11650;48.106;-1.696;2023-08-12T07:04:35;11.50;;;4.77;;
22967;SDS011;11650;48.106;-1.696;2023-08-12T07:07:01;21.33;;;5.67;;
22967;SDS011;11650;48.106;-1.696;2023-08-12T07:09:26;22.73;;;5.90;;
22967;SDS011;11650;48.106;-1.696;2023-08-12T07:11:52;20.13;;;5.53;;
22967;SDS011;11650;48.106;-1.696;2023-08-12T07:14:18;18.70;;;4.93;;
22967;SDS011;11650;48.106;-1.696;2023-08-12T07:16:43;19.80;;;5.13;;
22967;SDS011;11650;48.106;-1.696;2023-08-12T07:19:09;22.00;;;5.77;;
22967;SDS011;11650;48.106;-1.696;2023-08-12T07:21:35;18.70;;;5.47;;
22967;SDS011;11650;48.106;-1.696;2023-08-12T07:24:00;17.13;;;5.30;;
22967;SDS011;11650;48.106;-1.696;2023-08-12T07:26:26;18.93;;;5.00;;
22967;SDS011;11650;48.106;-1.696;2023-08-12T07:28:52;17.67;;;5.37;;
22967;SDS011;11650;48.106;-1.696;2023-08-12T07:31:18;22.07;;;5.07;;
22967;SDS011;11650;48.106;-1.696;2023-08-12T07:33:43;21.27;;;5.90;;
22967;SDS011;11650;48.106;-1.696;2023-08-12T07:36:09;19.83;;;4.77;;
22967;SDS011;11650;48.106;-1.696;2023-08-12T07:38:34;20.70;;;4.77;;
22967;SDS011;11650;48.106;-1.696;2023-08-12T07:41:00;19.03;;;4.90;;
22967;SDS011;11650;48.106;-1.696;2023-08-12T07:43:26;16.47;;;4.13;;
22967;SDS011;11650;48.106;-1.696;2023-08-12T07:45:52;20.90;;;4.33;;
22967;SDS011;11650;48.106;-1.696;2023-08-12T07:48:19;16.40;;;4.23;;
22967;SDS011;11650;48.106;-1.696;2023-08-12T07:50:45;14.23;;;3.70;;
22967;SDS011;11650;48.106;-1.696;2023-08-12T07:53:13;19.53;;;4.70;;
22967;SDS011;11650;48.106;-1.696;2023-08-12T07:55:40;13.17;;;3.77;;
22967;SDS011;11650;48.106;-1.696;2023-08-12T07:58:05;18.70;;;4.70;;
22967;SDS011;11650;48.106;-1.696;2023-08-12T08:00:32;19.37;;;4.43;;
22967;SDS011;11650;48.106;-1.696;2023-08-12T08:02:58;16.63;;;4.33;;
22967;SDS011;11650;48.106;-1.696;2023-08-12T08:05:24;19.67;;;3.93;;
22967;SDS011;11650;48.106;-1.696;2023-08-12T08:07:50;19.17;;;4.33;;
22967;SDS011;11650;48.106;-1.696;2023-08-12T08:10:15;17.83;;;4.30;;
22967;SDS011;11650;48.106;-1.696;2023-08-12T08:12:41;19.90;;;4.93;;
22967;SDS011;11650;48.106;-1.696;2023-08-12T08:15:06;20.30;;;4.70;;
22967;SDS011;11650;48.106;-1.696;2023-08-12T08:17:32;18.73;;;3.87;;
22967;SDS011;11650;48.106;-1.696;2023-08-12T08:19:58;19.47;;;3.90;;
22967;SDS011;11650;48.106;-1.696;2023-08-12T08:22:24;22.10;;;4.47;;
22967;SDS011;11650;48.106;-1.696;2023-08-12T08:24:49;19.90;;;3.40;;
22967;SDS011;11650;48.106;-1.696;2023-08-12T08:27:15;19.17;;;4.27;;
22967;SDS011;11650;48.106;-1.696;2023-08-12T08:29:40;23.30;;;4.80;;
22967;SDS011;11650;48.106;-1.696;2023-08-12T08:32:06;24.53;;;4.47;;
22967;SDS011;11650;48.106;-1.696;2023-08-12T08:34:32;20.23;;;4.77;;
22967;SDS011;11650;48.106;-1.696;2023-08-12T08:36:57;22.23;;;4.70;;
22967;SDS011;11650;48.106;-1.696;2023-08-12T08:39:23;16.20;;;4.07;;
22967;SDS011;11650;48.106;-1.696;2023-08-12T08:41:49;16.77;;;4.00;;
22967;SDS011;11650;48.106;-1.696;2023-08-12T08:44:16;22.93;;;4.23;;
22967;SDS011;11650;48.106;-1.696;2023-08-12T08:46:46;14.43;;;3.90;;
22967;SDS011;11650;48.106;-1.696;2023-08-12T08:49:13;18.73;;;4.03;;
22967;SDS011;11650;48.106;-1.696;2023-08-12T08:51:41;17.53;;;3.90;;
22967;SDS011;11650;48.106;-1.696;2023-08-12T08:54:07;17.10;;;3.83;;
22967;SDS011;11650;48.106;-1.696;2023-08-12T08:56:34;17.57;;;3.63;;
22967;SDS011;11650;48.106;-1.696;2023-08-12T08:59:02;19.53;;;4.40;;
22967;SDS011;11650;48.106;-1.696;2023-08-12T09:01:28;16.53;;;3.73;;
22967;SDS011;11650;48.106;-1.696;2023-08-12T09:03:54;15.00;;;4.00;;
22967;SDS011;11650;48.106;-1.696;2023-08-12T09:06:21;14.83;;;3.93;;
22967;SDS011;11650;48.106;-1.696;2023-08-12T09:08:48;18.03;;;3.63;;
22967;SDS011;11650;48.106;-1.696;2023-08-12T09:11:16;14.53;;;3.60;;
22967;SDS011;11650;48.106;-1.696;2023-08-12T09:13:43;14.53;;;3.53;;
22967;SDS011;11650;48.106;-1.696;2023-08-12T09:16:08;18.03;;;3.80;;
22967;SDS011;11650;48.106;-1.696;2023-08-12T09:18:34;14.60;;;3.70;;
22967;SDS011;11650;48.106;-1.696;2023-08-12T09:21:01;22.27;;;3.90;;
22967;SDS011;11650;48.106;-1.696;2023-08-12T09:23:27;15.37;;;3.33;;
22967;SDS011;11650;48.106;-1.696;2023-08-12T09:25:53;15.30;;;3.73;;
22967;SDS011;11650;48.106;-1.696;2023-08-12T09:28:19;17.00;;;4.10;;
22967;SDS011;11650;48.106;-1.696;2023-08-12T09:30:49;13.30;;;3.10;;
22967;SDS011;11650;48.106;-1.696;2023-08-12T09:33:23;13.13;;;3.60;;
22967;SDS011;11650;48.106;-1.696;2023-08-12T09:35:51;16.97;;;3.40;;
22967;SDS011;11650;48.106;-1.696;2023-08-12T09:38:17;14.03;;;3.37;;
22967;SDS011;11650;48.106;-1.696;2023-08-12T09:40:43;16.47;;;3.97;;
22967;SDS011;11650;48.106;-1.696;2023-08-12T09:43:11;16.07;;;3.33;;
22967;SDS011;11650;48.106;-1.696;2023-08-12T09:45:37;15.63;;;4.20;;
22967;SDS011;11650;48.106;-1.696;2023-08-12T09:48:02;10.83;;;3.50;;
22967;SDS011;11650;48.106;-1.696;2023-08-12T09:50:28;13.37;;;3.43;;
22967;SDS011;11650;48.106;-1.696;2023-08-12T09:52:55;16.17;;;3.73;;
22967;SDS011;11650;48.106;-1.696;2023-08-12T09:55:22;14.60;;;3.27;;
22967;SDS011;11650;48.106;-1.696;2023-08-12T09:57:53;14.73;;;3.53;;
22967;SDS011;11650;48.106;-1.696;2023-08-12T10:00:20;17.67;;;3.90;;
22967;SDS011;11650;48.106;-1.696;2023-08-12T10:02:47;15.90;;;3.10;;
22967;SDS011;11650;48.106;-1.696;2023-08-12T10:05:17;14.83;;;3.70;;
22967;SDS011;11650;48.106;-1.696;2023-08-12T10:07:46;13.23;;;3.10;;
22967;SDS011;11650;48.106;-1.696;2023-08-12T10:10:12;12.30;;;3.53;;
22967;SDS011;11650;48.106;-1.696;2023-08-12T10:12:39;13.60;;;3.23;;
22967;SDS011;11650;48.106;-1.696;2023-08-12T10:15:06;16.73;;;3.47;;
22967;SDS011;11650;48.106;-1.696;2023-08-12T10:17:34;14.90;;;3.00;;
22967;SDS011;11650;48.106;-1.696;2023-08-12T10:20:01;15.73;;;3.50;;
22967;SDS011;11650;48.106;-1.696;2023-08-12T10:22:29;14.10;;;3.13;;
22967;SDS011;11650;48.106;-1.696;2023-08-12T10:24:59;13.90;;;3.37;;
22967;SDS011;11650;48.106;-1.696;2023-08-12T10:27:27;14.17;;;3.10;;
22967;SDS011;11650;48.106;-1.696;2023-08-12T10:29:57;13.90;;;3.20;;
22967;SDS011;11650;48.106;-1.696;2023-08-12T10:32:23;11.73;;;2.97;;
22967;SDS011;11650;48.106;-1.696;2023-08-12T10:34:55;14.77;;;2.70;;
22967;SDS011;11650;48.106;-1.696;2023-08-12T10:37:23;11.07;;;2.60;;
22967;SDS011;11650;48.106;-1.696;2023-08-12T10:39:49;10.30;;;2.80;;
22967;SDS011;11650;48.106;-1.696;2023-08-12T10:45:14;12.23;;;2.80;;
22967;SDS011;11650;48.106;-1.696;2023-08-12T10:50:25;18.00;;;3.27;;
22967;SDS011;11650;48.106;-1.696;2023-08-12T10:52:51;16.03;;;3.43;;
22967;SDS011;11650;48.106;-1.696;2023-08-12T10:57:48;17.70;;;3.80;;
22967;SDS011;11650;48.106;-1.696;2023-08-12T11:00:24;13.93;;;3.13;;
22967;SDS011;11650;48.106;-1.696;2023-08-12T11:02:52;13.13;;;3.70;;
22967;SDS011;11650;48.106;-1.696;2023-08-12T11:05:19;18.77;;;3.47;;
22967;SDS011;11650;48.106;-1.696;2023-08-12T11:07:49;14.43;;;3.00;;
22967;SDS011;11650;48.106;-1.696;2023-08-12T11:10:24;15.93;;;3.13;;
22967;SDS011;11650;48.106;-1.696;2023-08-12T11:15:17;14.90;;;3.13;;
22967;SDS011;11650;48.106;-1.696;2023-08-12T11:17:45;8.87;;;2.43;;
22967;SDS011;11650;48.106;-1.696;2023-08-12T11:20:12;14.67;;;3.27;;
22967;SDS011;11650;48.106;-1.696;2023-08-12T11:22:42;14.60;;;3.73;;
22967;SDS011;11650;48.106;-1.696;2023-08-12T11:25:09;16.90;;;3.10;;
22967;SDS011;11650;48.106;-1.696;2023-08-12T11:30:13;16.37;;;3.53;;
22967;SDS011;11650;48.106;-1.696;2023-08-12T11:32:41;18.87;;;3.40;;
22967;SDS011;11650;48.106;-1.696;2023-08-12T11:35:11;14.87;;;3.67;;
22967;SDS011;11650;48.106;-1.696;2023-08-12T11:37:38;12.80;;;3.37;;
22967;SDS011;11650;48.106;-1.696;2023-08-12T11:40:05;13.80;;;3.50;;
22967;SDS011;11650;48.106;-1.696;2023-08-12T11:42:34;13.37;;;3.03;;
22967;SDS011;11650;48.106;-1.696;2023-08-12T11:45:00;14.87;;;3.40;;
22967;SDS011;11650;48.106;-1.696;2023-08-12T11:47:26;13.97;;;3.37;;
22967;SDS011;11650;48.106;-1.696;2023-08-12T11:49:52;14.83;;;3.60;;
22967;SDS011;11650;48.106;-1.696;2023-08-12T11:52:19;11.60;;;2.87;;
22967;SDS011;11650;48.106;-1.696;2023-08-12T11:54:44;13.47;;;3.03;;
22967;SDS011;11650;48.106;-1.696;2023-08-12T11:57:10;12.37;;;2.77;;
22967;SDS011;11650;48.106;-1.696;2023-08-12T11:59:36;17.87;;;3.00;;
22967;SDS011;11650;48.106;-1.696;2023-08-12T12:02:02;11.47;;;2.87;;
22967;SDS011;11650;48.106;-1.696;2023-08-12T12:04:32;16.30;;;3.43;;
22967;SDS011;11650;48.106;-1.696;2023-08-12T12:06:58;12.47;;;2.90;;
22967;SDS011;11650;48.106;-1.696;2023-08-12T12:09:25;11.00;;;3.00;;
22967;SDS011;11650;48.106;-1.696;2023-08-12T12:11:55;13.20;;;2.97;;
22967;SDS011;11650;48.106;-1.696;2023-08-12T12:14:21;13.80;;;3.47;;
22967;SDS011;11650;48.106;-1.696;2023-08-12T12:16:47;8.73;;;2.43;;
22967;SDS011;11650;48.106;-1.696;2023-08-12T12:19:15;14.20;;;3.27;;
22967;SDS011;11650;48.106;-1.696;2023-08-12T12:21:51;14.83;;;2.93;;
22967;SDS011;11650;48.106;-1.696;2023-08-12T12:24:18;14.27;;;2.90;;
22967;SDS011;11650;48.106;-1.696;2023-08-12T12:26:45;15.00;;;2.90;;
22967;SDS011;11650;48.106;-1.696;2023-08-12T12:29:12;16.33;;;3.47;;
22967;SDS011;11650;48.106;-1.696;2023-08-12T12:31:38;13.17;;;2.73;;
22967;SDS011;11650;48.106;-1.696;2023-08-12T12:34:05;13.80;;;2.50;;
22967;SDS011;11650;48.106;-1.696;2023-08-12T12:36:31;14.33;;;2.93;;
22967;SDS011;11650;48.106;-1.696;2023-08-12T12:39:01;13.33;;;2.90;;
22967;SDS011;11650;48.106;-1.696;2023-08-12T12:41:30;14.43;;;2.90;;
22967;SDS011;11650;48.106;-1.696;2023-08-12T12:43:56;12.13;;;3.43;;
22967;SDS011;11650;48.106;-1.696;2023-08-12T12:46:22;12.00;;;3.50;;
22967;SDS011;11650;48.106;-1.696;2023-08-12T12:48:48;12.07;;;2.60;;
22967;SDS011;11650;48.106;-1.696;2023-08-12T12:51:14;13.53;;;2.73;;
22967;SDS011;11650;48.106;-1.696;2023-08-12T12:53:40;12.53;;;2.27;;
22967;SDS011;11650;48.106;-1.696;2023-08-12T12:56:06;11.23;;;2.40;;
22967;SDS011;11650;48.106;-1.696;2023-08-12T12:58:32;12.30;;;3.08;;
22967;SDS011;11650;48.106;-1.696;2023-08-12T13:00:59;12.63;;;3.23;;
22967;SDS011;11650;48.106;-1.696;2023-08-12T13:03:25;12.67;;;2.77;;
22967;SDS011;11650;48.106;-1.696;2023-08-12T13:05:51;14.13;;;2.80;;
22967;SDS011;11650;48.106;-1.696;2023-08-12T13:08:17;16.17;;;3.07;;
22967;SDS011;11650;48.106;-1.696;2023-08-12T13:10:43;11.63;;;2.77;;
22967;SDS011;11650;48.106;-1.696;2023-08-12T13:13:08;10.23;;;2.70;;
22967;SDS011;11650;48.106;-1.696;2023-08-12T13:15:34;9.20;;;2.30;;
22967;SDS011;11650;48.106;-1.696;2023-08-12T13:18:00;10.53;;;3.07;;
22967;SDS011;11650;48.106;-1.696;2023-08-12T13:20:26;11.63;;;2.40;;
22967;SDS011;11650;48.106;-1.696;2023-08-12T13:22:52;9.33;;;2.30;;
22967;SDS011;11650;48.106;-1.696;2023-08-12T13:25:18;9.90;;;2.43;;
22967;SDS011;11650;48.106;-1.696;2023-08-12T13:27:43;13.37;;;2.97;;
22967;SDS011;11650;48.106;-1.696;2023-08-12T13:30:09;11.90;;;2.40;;
22967;SDS011;11650;48.106;-1.696;2023-08-12T13:32:36;14.17;;;3.03;;
22967;SDS011;11650;48.106;-1.696;2023-08-12T13:35:02;13.13;;;2.57;;
22967;SDS011;11650;48.106;-1.696;2023-08-12T13:37:28;10.77;;;2.80;;
22967;SDS011;11650;48.106;-1.696;2023-08-12T13:39:54;14.30;;;3.25;;
22967;SDS011;11650;48.106;-1.696;2023-08-12T13:42:20;12.00;;;2.55;;
22967;SDS011;11650;48.106;-1.696;2023-08-12T13:44:46;11.80;;;2.97;;
22967;SDS011;11650;48.106;-1.696;2023-08-12T13:47:11;9.35;;;2.70;;
22967;SDS011;11650;48.106;-1.696;2023-08-12T13:49:37;8.80;;;2.22;;
22967;SDS011;11650;48.106;-1.696;2023-08-12T13:52:03;13.63;;;2.80;;
22967;SDS011;11650;48.106;-1.696;2023-08-12T13:54:28;8.35;;;2.20;;
22967;SDS011;11650;48.106;-1.696;2023-08-12T13:56:54;12.23;;;3.13;;
22967;SDS011;11650;48.106;-1.696;2023-08-12T13:59:20;9.73;;;2.47;;
22967;SDS011;11650;48.106;-1.696;2023-08-12T14:01:45;9.80;;;2.20;;
22967;SDS011;11650;48.106;-1.696;2023-08-12T14:04:11;9.20;;;2.50;;
22967;SDS011;11650;48.106;-1.696;2023-08-12T14:06:37;9.95;;;2.90;;
22967;SDS011;11650;48.106;-1.696;2023-08-12T14:09:02;12.60;;;2.97;;
22967;SDS011;11650;48.106;-1.696;2023-08-12T14:11:28;12.98;;;2.85;;
22967;SDS011;11650;48.106;-1.696;2023-08-12T14:13:56;13.52;;;3.03;;
22967;SDS011;11650;48.106;-1.696;2023-08-12T14:16:22;11.57;;;2.70;;
22967;SDS011;11650;48.106;-1.696;2023-08-12T14:18:48;13.27;;;2.37;;
22967;SDS011;11650;48.106;-1.696;2023-08-12T14:21:13;7.80;;;2.17;;
22967;SDS011;11650;48.106;-1.696;2023-08-12T14:23:39;14.63;;;3.00;;
22967;SDS011;11650;48.106;-1.696;2023-08-12T14:26:04;11.33;;;2.90;;
22967;SDS011;11650;48.106;-1.696;2023-08-12T14:28:30;15.47;;;2.67;;
22967;SDS011;11650;48.106;-1.696;2023-08-12T14:30:56;10.90;;;2.83;;
22967;SDS011;11650;48.106;-1.696;2023-08-12T14:33:21;12.07;;;3.03;;
22967;SDS011;11650;48.106;-1.696;2023-08-12T14:35:49;10.37;;;2.20;;